createdAt,value
2018-08-11T00:00:35.666Z,60.43
2018-08-11T00:01:35.600Z,60.01
2018-08-11T00:02:35.658Z,60.32
2018-08-11T00:03:35.719Z,59.8
2018-08-11T00:04:35.680Z,59.46
2018-08-11T00:05:35.594Z,60.33
2018-08-11T00:06:35.618Z,59.74
2018-08-11T00:07:35.868Z,59.43
2018-08-11T00:08:35.770Z,59.71
2018-08-11T00:09:35.802Z,59.58
2018-08-11T00:10:35.596Z,59.35
2018-08-11T00:11:35.619Z,59.78
2018-08-11T00:12:35.727Z,59.4
2018-08-11T00:13:35.801Z,59.6
2018-08-11T00:14:35.596Z,59.35
2018-08-11T00:15:35.629Z,59.76
2018-08-11T00:16:35.626Z,60.3
2018-08-11T00:17:35.631Z,60.55
2018-08-11T00:18:35.634Z,60.05
2018-08-11T00:19:35.761Z,60.5
2018-08-11T00:20:35.908Z,60.22
2018-08-11T00:21:35.643Z,60.23
2018-08-11T00:22:35.677Z,60.76
2018-08-11T00:23:35.635Z,60.38
2018-08-11T00:24:35.638Z,61.13
2018-08-11T00:25:35.665Z,61.16
2018-08-11T00:26:35.611Z,60.93
2018-08-11T00:27:35.628Z,60.89
2018-08-11T00:28:35.706Z,60.43
2018-08-11T00:29:35.702Z,60.68
2018-08-11T00:30:35.705Z,60.59
2018-08-11T00:31:35.585Z,60.31
2018-08-11T00:32:35.572Z,61.49
2018-08-11T00:33:35.649Z,61.25
2018-08-11T00:34:35.630Z,61.33
2018-08-11T00:35:35.616Z,61.42
2018-08-11T00:36:35.630Z,61.33
2018-08-11T00:37:35.627Z,61.47
2018-08-11T00:38:35.687Z,61.2
2018-08-11T00:39:35.622Z,61.19
2018-08-11T00:40:35.697Z,61.04
2018-08-11T00:41:35.765Z,61
2018-08-11T00:42:35.618Z,61.13
2018-08-11T00:43:35.823Z,60.85
2018-08-11T00:44:35.655Z,61.69
2018-08-11T00:45:35.579Z,61.64
2018-08-11T00:46:35.714Z,61.28
2018-08-11T00:47:35.630Z,61.43
2018-08-11T00:48:35.579Z,62.03
2018-08-11T00:49:35.742Z,61.91
2018-08-11T00:50:35.591Z,61.65
2018-08-11T00:51:35.625Z,61.63
2018-08-11T00:52:35.617Z,61.59
2018-08-11T00:53:35.618Z,61.82
2018-08-11T00:54:35.587Z,61.97
2018-08-11T00:55:35.624Z,62.1
2018-08-11T00:56:35.623Z,61.51
2018-08-11T00:57:35.616Z,61.18
2018-08-11T00:58:35.587Z,61.58
2018-08-11T00:59:35.576Z,62.31
2018-08-11T01:00:35.597Z,61.77
2018-08-11T01:01:35.607Z,61.53
2018-08-11T01:02:35.614Z,61.61
2018-08-11T01:03:35.614Z,61.79
2018-08-11T01:04:35.588Z,61.43
2018-08-11T01:05:35.591Z,62.83
2018-08-11T01:06:35.585Z,62.27
2018-08-11T01:07:35.616Z,61.88
2018-08-11T01:08:35.617Z,61.73
2018-08-11T01:09:35.606Z,62.53
2018-08-11T01:10:35.607Z,63.08
2018-08-11T01:11:35.725Z,62.62
2018-08-11T01:12:35.583Z,62.2
2018-08-11T01:13:35.615Z,61.98
2018-08-11T01:14:35.705Z,62.47
2018-08-11T01:15:35.944Z,62.76
2018-08-11T01:16:35.642Z,62.28
2018-08-11T01:17:35.756Z,61.99
2018-08-11T01:18:35.749Z,61.88
2018-08-11T01:19:35.700Z,62.24
2018-08-11T01:20:35.677Z,62.36
2018-08-11T01:21:35.611Z,62.13
2018-08-11T01:22:35.748Z,62.67
2018-08-11T01:23:35.715Z,62.84
2018-08-11T01:24:35.721Z,62.85
2018-08-11T01:25:35.627Z,62.44
2018-08-11T01:26:35.611Z,62.57
2018-08-11T01:27:35.753Z,62.42
2018-08-11T01:28:35.585Z,62.03
2018-08-11T01:29:35.662Z,61.96
2018-08-11T01:30:35.696Z,61.71
2018-08-11T01:31:35.692Z,62.18
2018-08-11T01:32:36.006Z,61.94
2018-08-11T01:33:35.617Z,61.95
2018-08-11T01:34:35.767Z,62.19
2018-08-11T01:35:35.747Z,62.14
2018-08-11T01:36:35.666Z,61.99
2018-08-11T01:37:35.611Z,62.27
2018-08-11T01:38:35.943Z,61.55
2018-08-11T01:39:35.581Z,62.09
2018-08-11T01:40:35.615Z,61.92
2018-08-11T01:41:35.619Z,61.7
2018-08-11T01:42:35.622Z,62.2
2018-08-11T01:43:35.655Z,61.92
2018-08-11T01:44:35.617Z,62.12
2018-08-11T01:45:35.641Z,61.43
2018-08-11T01:46:35.641Z,61.63
2018-08-11T01:47:35.624Z,61.63
2018-08-11T01:48:35.623Z,61.7
2018-08-11T01:49:35.601Z,61.58
2018-08-11T01:50:35.928Z,61.3
2018-08-11T01:51:35.613Z,61.71
2018-08-11T01:52:35.613Z,61.41
2018-08-11T01:53:35.658Z,61.74
2018-08-11T01:54:35.752Z,61.37
2018-08-11T01:55:35.619Z,61.75
2018-08-11T01:56:35.717Z,61.26
2018-08-11T01:57:35.573Z,61.48
2018-08-11T01:58:35.904Z,61.51
2018-08-11T01:59:35.575Z,61.99
2018-08-11T02:00:35.727Z,61.5
2018-08-11T02:01:35.609Z,61.23
2018-08-11T02:02:35.605Z,61.04
2018-08-11T02:03:35.675Z,61.01
2018-08-11T02:04:36.067Z,60.93
2018-08-11T02:05:35.643Z,60.93
2018-08-11T02:06:35.637Z,61.16
2018-08-11T02:07:35.659Z,61.17
2018-08-11T02:08:35.574Z,60.74
2018-08-11T02:09:35.606Z,60.89
2018-08-11T02:10:35.643Z,60.68
2018-08-11T02:11:35.612Z,60.75
2018-08-11T02:12:35.574Z,61.02
2018-08-11T02:13:35.660Z,60.76
2018-08-11T02:14:35.595Z,60.82
2018-08-11T02:15:35.602Z,60.83
2018-08-11T02:16:35.572Z,60.77
2018-08-11T02:17:35.901Z,60.58
2018-08-11T02:18:35.682Z,60.64
2018-08-11T02:19:35.604Z,60.69
2018-08-11T02:20:35.613Z,60.49
2018-08-11T02:21:35.612Z,60.8
2018-08-11T02:22:35.656Z,61.06
2018-08-11T02:23:35.640Z,60.66
2018-08-11T02:24:35.628Z,60.88
2018-08-11T02:25:35.620Z,60.44
2018-08-11T02:26:35.674Z,60.48
2018-08-11T02:27:35.569Z,60.79
2018-08-11T02:28:35.644Z,60.7
2018-08-11T02:29:35.722Z,60.62
2018-08-11T02:30:35.604Z,60.97
2018-08-11T02:31:35.615Z,60.84
2018-08-11T02:32:35.598Z,60.83
2018-08-11T02:33:35.719Z,60.55
2018-08-11T02:34:35.723Z,60.79
2018-08-11T02:35:35.812Z,60.57
2018-08-11T02:36:35.642Z,61.07
2018-08-11T02:37:35.612Z,61.5
2018-08-11T02:38:35.641Z,61.31
2018-08-11T02:39:35.746Z,61.65
2018-08-11T02:40:35.567Z,61.65
2018-08-11T02:41:35.699Z,61.96
2018-08-11T02:42:35.727Z,61.67
2018-08-11T02:43:35.865Z,61.94
2018-08-11T02:44:35.725Z,61.68
2018-08-11T02:45:35.713Z,62.49
2018-08-11T02:46:35.718Z,61.99
2018-08-11T02:47:35.691Z,62.69
2018-08-11T02:48:35.693Z,62.23
2018-08-11T02:49:35.752Z,63.32
2018-08-11T02:50:35.767Z,62.98
2018-08-11T02:51:35.610Z,63.73
2018-08-11T02:52:35.641Z,63.15
2018-08-11T02:53:35.858Z,63.14
2018-08-11T02:54:35.624Z,62.94
2018-08-11T02:55:35.728Z,62.75
2018-08-11T02:56:35.649Z,63.39
2018-08-11T02:57:35.731Z,63.04
2018-08-11T02:58:35.842Z,63.08
2018-08-11T02:59:35.706Z,62.86
2018-08-11T03:00:35.626Z,62.94
2018-08-11T03:01:35.621Z,63.73
2018-08-11T03:02:35.904Z,64.07
2018-08-11T03:03:35.695Z,63.37
2018-08-11T03:04:35.618Z,63.22
2018-08-11T03:05:35.598Z,63.48
2018-08-11T03:06:35.756Z,63.6
2018-08-11T03:07:35.635Z,64.23
2018-08-11T03:08:35.759Z,63.76
2018-08-11T03:09:35.605Z,63.99
2018-08-11T03:10:35.732Z,64.01
2018-08-11T03:11:35.612Z,64.43
2018-08-11T03:12:35.592Z,64.3
2018-08-11T03:13:35.661Z,64.68
2018-08-11T03:14:35.602Z,64.18
2018-08-11T03:15:35.671Z,63.87
2018-08-11T03:16:35.673Z,64
2018-08-11T03:17:35.616Z,64.28
2018-08-11T03:18:35.650Z,64.76
2018-08-11T03:19:35.633Z,64.73
2018-08-11T03:20:35.614Z,64.3
2018-08-11T03:21:35.682Z,63.92
2018-08-11T03:22:35.638Z,64.2
2018-08-11T03:23:35.605Z,64.07
2018-08-11T03:24:35.588Z,64.36
2018-08-11T03:25:35.554Z,64.45
2018-08-11T03:26:35.599Z,64.5
2018-08-11T03:27:35.590Z,64.23
2018-08-11T03:28:35.559Z,64.55
2018-08-11T03:29:35.644Z,64.18
2018-08-11T03:30:35.594Z,63.87
2018-08-11T03:31:35.609Z,64.39
2018-08-11T03:32:35.649Z,63.75
2018-08-11T03:33:35.620Z,63.82
2018-08-11T03:34:35.597Z,63.65
2018-08-11T03:35:35.585Z,63.57
2018-08-11T03:36:35.605Z,63.6
2018-08-11T03:37:35.596Z,63.59
2018-08-11T03:38:35.600Z,63.84
2018-08-11T03:39:35.557Z,63.45
2018-08-11T03:40:35.726Z,63.37
2018-08-11T03:41:35.585Z,63.7
2018-08-11T03:42:35.589Z,63.9
2018-08-11T03:43:35.651Z,63.35
2018-08-11T03:44:35.624Z,63.32
2018-08-11T03:45:35.717Z,63.2
2018-08-11T03:46:35.674Z,63.06
2018-08-11T03:47:35.619Z,62.99
2018-08-11T03:48:35.594Z,63.03
2018-08-11T03:49:35.598Z,62.93
2018-08-11T03:50:35.741Z,62.75
2018-08-11T03:51:35.549Z,62.53
2018-08-11T03:52:35.664Z,62.65
2018-08-11T03:53:35.644Z,62.51
2018-08-11T03:54:35.642Z,62.52
2018-08-11T03:55:35.644Z,62.4
2018-08-11T03:56:35.600Z,62.26
2018-08-11T03:57:35.646Z,61.95
2018-08-11T03:58:35.763Z,62.47
2018-08-11T03:59:35.601Z,62.17
2018-08-11T04:00:35.649Z,62.11
2018-08-11T04:01:35.778Z,61.91
2018-08-11T04:02:35.656Z,62.03
2018-08-11T04:03:35.638Z,61.84
2018-08-11T04:04:35.627Z,61.98
2018-08-11T04:05:35.610Z,62.43
2018-08-11T04:06:35.682Z,62.21
2018-08-11T04:07:35.612Z,61.73
2018-08-11T04:08:35.607Z,62.25
2018-08-11T04:09:35.730Z,62.17
2018-08-11T04:10:35.612Z,62.04
2018-08-11T04:11:35.605Z,61.68
2018-08-11T04:12:35.694Z,61.75
2018-08-11T04:13:35.590Z,61.41
2018-08-11T04:14:35.590Z,61.39
2018-08-11T04:15:35.707Z,61.55
2018-08-11T04:16:35.596Z,61.67
2018-08-11T04:17:35.602Z,61.82
2018-08-11T04:18:35.808Z,62.02
2018-08-11T04:19:35.611Z,62.07
2018-08-11T04:20:35.652Z,61.83
2018-08-11T04:21:35.722Z,61.99
2018-08-11T04:22:35.580Z,62.01
2018-08-11T04:23:35.612Z,62.34
2018-08-11T04:24:35.603Z,61.96
2018-08-11T04:25:35.729Z,62.08
2018-08-11T04:26:35.646Z,61.94
2018-08-11T04:27:35.611Z,62.24
2018-08-11T04:28:35.590Z,61.89
2018-08-11T04:29:35.652Z,62.2
2018-08-11T04:30:35.590Z,61.99
2018-08-11T04:31:35.591Z,62.31
2018-08-11T04:32:35.668Z,62.51
2018-08-11T04:33:35.665Z,62.35
2018-08-11T04:34:35.604Z,62.2
2018-08-11T04:35:35.624Z,62.05
2018-08-11T04:36:35.613Z,62.26
2018-08-11T04:37:35.579Z,62.24
2018-08-11T04:38:35.596Z,62.42
2018-08-11T04:39:35.621Z,62.26
2018-08-11T04:40:35.590Z,62.12
2018-08-11T04:41:35.581Z,61.98
2018-08-11T04:42:35.650Z,62.1
2018-08-11T04:43:35.603Z,61.82
2018-08-11T04:44:35.590Z,62.44
2018-08-11T04:45:35.592Z,62.29
2018-08-11T04:46:35.587Z,62.22
2018-08-11T04:47:35.592Z,62.33
2018-08-11T04:48:35.577Z,62.21
2018-08-11T04:49:35.605Z,62.27
2018-08-11T04:50:35.585Z,62.28
2018-08-11T04:51:35.583Z,62.18
2018-08-11T04:52:35.592Z,62.06
2018-08-11T04:53:35.622Z,62.27
2018-08-11T04:54:35.708Z,62.18
2018-08-11T04:55:35.600Z,62.3
2018-08-11T04:56:36.233Z,62.19
2018-08-11T04:57:35.581Z,62
2018-08-11T04:58:35.596Z,62.34
2018-08-11T04:59:35.736Z,62.26
2018-08-11T05:00:35.577Z,62.43
2018-08-11T05:01:35.586Z,62.51
2018-08-11T05:02:35.591Z,62.91
2018-08-11T05:03:35.775Z,62.6
2018-08-11T05:04:35.689Z,63.06
2018-08-11T05:05:36.329Z,62.97
2018-08-11T05:06:35.601Z,62.96
2018-08-11T05:07:35.593Z,63.05
2018-08-11T05:08:35.627Z,62.76
2018-08-11T05:09:35.711Z,62.47
2018-08-11T05:10:35.746Z,62.46
2018-08-11T05:11:35.594Z,62.05
2018-08-11T05:12:35.574Z,62.18
2018-08-11T05:13:35.681Z,62.04
2018-08-11T05:14:35.592Z,61.97
2018-08-11T05:15:36.049Z,62.04
2018-08-11T05:16:35.610Z,61.68
2018-08-11T05:17:35.649Z,61.91
2018-08-11T05:18:35.980Z,61.93
2018-08-11T05:19:35.613Z,61.76
2018-08-11T05:20:35.598Z,61.57
2018-08-11T05:21:35.807Z,61.61
2018-08-11T05:22:35.569Z,61.37
2018-08-11T05:23:35.933Z,61.56
2018-08-11T05:24:35.598Z,61.57
2018-08-11T05:25:35.654Z,61.72
2018-08-11T05:26:35.738Z,61.42
2018-08-11T05:27:35.623Z,61.38
2018-08-11T05:28:35.773Z,61.1
2018-08-11T05:29:35.647Z,61.2
2018-08-11T05:30:35.625Z,61.51
2018-08-11T05:31:35.591Z,61.82
2018-08-11T05:32:35.599Z,61.69
2018-08-11T05:33:35.716Z,61.9
2018-08-11T05:34:35.621Z,62.22
2018-08-11T05:35:35.651Z,61.79
2018-08-11T05:36:35.696Z,61.79
2018-08-11T05:37:35.587Z,61.86
2018-08-11T05:38:35.571Z,61.75
2018-08-11T05:39:35.628Z,61.84
2018-08-11T05:40:35.575Z,61.97
2018-08-11T05:41:35.652Z,61.93
2018-08-11T05:42:35.613Z,61.91
2018-08-11T05:43:35.850Z,62
2018-08-11T05:44:35.759Z,62.11
2018-08-11T05:45:35.660Z,61.63
2018-08-11T05:46:35.625Z,61.71
2018-08-11T05:47:35.604Z,61.28
2018-08-11T05:48:35.623Z,61.23
2018-08-11T05:49:35.731Z,61.71
2018-08-11T05:50:35.671Z,61.38
2018-08-11T05:51:35.680Z,61.59
2018-08-11T05:52:35.658Z,61.94
2018-08-11T05:53:35.677Z,61.58
2018-08-11T05:54:35.781Z,60.37
2018-08-11T05:55:35.600Z,60.27
2018-08-11T05:56:35.586Z,59.86
2018-08-11T05:57:35.697Z,60.07
2018-08-11T05:58:35.583Z,59.88
2018-08-11T05:59:35.581Z,59.16
2018-08-11T06:00:35.638Z,59.12
2018-08-11T06:01:35.669Z,58.74
2018-08-11T06:02:35.574Z,58.85
2018-08-11T06:03:35.580Z,58.2
2018-08-11T06:04:35.577Z,58.19
2018-08-11T06:05:35.569Z,58.13
2018-08-11T06:06:35.574Z,57.94
2018-08-11T06:07:35.566Z,57.64
2018-08-11T06:08:35.578Z,57.24
2018-08-11T06:09:35.610Z,57.22
2018-08-11T06:10:35.610Z,57.38
2018-08-11T06:11:35.578Z,57.47
2018-08-11T06:12:35.581Z,57.34
2018-08-11T06:13:35.569Z,57.08
2018-08-11T06:14:35.571Z,57.1
2018-08-11T06:15:35.561Z,57.47
2018-08-11T06:16:35.592Z,57.4
2018-08-11T06:17:35.573Z,57.39
2018-08-11T06:18:35.786Z,57.25
2018-08-11T06:19:35.625Z,57.31
2018-08-11T06:20:35.556Z,57.32
2018-08-11T06:21:35.626Z,56.8
2018-08-11T06:22:35.602Z,56.85
2018-08-11T06:23:35.572Z,57.02
2018-08-11T06:24:35.774Z,57.5
2018-08-11T06:25:35.579Z,57.18
2018-08-11T06:26:35.571Z,57.25
2018-08-11T06:27:35.619Z,57.44
2018-08-11T06:28:35.572Z,57.18
2018-08-11T06:29:35.779Z,57.22
2018-08-11T06:30:35.612Z,57.38
2018-08-11T06:31:35.786Z,57.11
2018-08-11T06:32:35.583Z,56.99
2018-08-11T06:33:35.646Z,57.11
2018-08-11T06:34:35.607Z,57.21
2018-08-11T06:35:35.753Z,56.55
2018-08-11T06:36:35.617Z,56.83
2018-08-11T06:37:35.687Z,56.82
2018-08-11T06:38:35.660Z,56.65
2018-08-11T06:39:35.598Z,56.46
2018-08-11T06:40:35.706Z,56.54
2018-08-11T06:41:35.813Z,56.64
2018-08-11T06:42:35.672Z,56.81
2018-08-11T06:43:35.639Z,56.59
2018-08-11T06:44:35.606Z,56.6
2018-08-11T06:45:35.681Z,56.6
2018-08-11T06:46:35.586Z,56.44
2018-08-11T06:47:35.637Z,56.31
2018-08-11T06:48:35.579Z,56.34
2018-08-11T06:49:35.644Z,56.27
2018-08-11T06:50:35.590Z,56.3
2018-08-11T06:51:35.583Z,56.07
2018-08-11T06:52:35.841Z,55.71
2018-08-11T06:53:35.636Z,55.71
2018-08-11T06:54:35.641Z,55.7
2018-08-11T06:55:35.841Z,56.19
2018-08-11T06:56:35.588Z,55.64
2018-08-11T06:57:35.621Z,55.64
2018-08-11T06:58:35.679Z,55.33
2018-08-11T06:59:35.598Z,55.37
2018-08-11T07:00:35.599Z,55.45
2018-08-11T07:01:35.652Z,55.43
2018-08-11T07:02:35.582Z,55.55
2018-08-11T07:03:35.878Z,55.28
2018-08-11T07:04:35.588Z,54.63
2018-08-11T07:05:35.622Z,54.61
2018-08-11T07:06:35.694Z,54.68
2018-08-11T07:07:35.621Z,54.49
2018-08-11T07:08:35.595Z,54.17
2018-08-11T07:09:35.583Z,53.9
2018-08-11T07:10:35.659Z,53.58
2018-08-11T07:11:35.816Z,53.69
2018-08-11T07:12:35.586Z,53.84
2018-08-11T07:13:35.931Z,53.8
2018-08-11T07:14:35.578Z,54.18
2018-08-11T07:15:35.576Z,54.36
2018-08-11T07:16:35.592Z,53.81
2018-08-11T07:17:35.580Z,53.84
2018-08-11T07:18:35.594Z,53.74
2018-08-11T07:19:35.594Z,53.05
2018-08-11T07:20:35.577Z,52.05
2018-08-11T07:21:36.005Z,52.26
2018-08-11T07:22:35.569Z,52.39
2018-08-11T07:23:35.572Z,52.29
2018-08-11T07:24:35.603Z,51.64
2018-08-11T07:25:35.720Z,51.46
2018-08-11T07:26:35.641Z,51.92
2018-08-11T07:27:35.621Z,51.67
2018-08-11T07:28:35.570Z,51.34
2018-08-11T07:29:35.653Z,51.17
2018-08-11T07:30:35.594Z,51.2
2018-08-11T07:31:35.569Z,51.31
2018-08-11T07:32:35.623Z,50.92
2018-08-11T07:33:35.578Z,51.52
2018-08-11T07:34:35.584Z,51.66
2018-08-11T07:35:35.640Z,51.8
2018-08-11T07:36:35.630Z,51.36
2018-08-11T07:37:35.616Z,51.29
2018-08-11T07:38:35.854Z,51.54
2018-08-11T07:39:35.779Z,51.79
2018-08-11T07:40:35.622Z,51.57
2018-08-11T07:41:35.639Z,51.89
2018-08-11T07:42:35.599Z,51.9
2018-08-11T07:43:35.732Z,51.85
2018-08-11T07:44:35.562Z,51.5
2018-08-11T07:45:35.588Z,51.84
2018-08-11T07:46:35.573Z,52.03
2018-08-11T07:47:35.737Z,52.04
2018-08-11T07:48:36.316Z,52.21
2018-08-11T07:49:36.172Z,51.77
2018-08-11T07:50:35.763Z,51.62
2018-08-11T07:51:35.653Z,51.7
2018-08-11T07:52:35.595Z,51.83
2018-08-11T07:53:35.607Z,52.09
2018-08-11T07:54:35.680Z,52.47
2018-08-11T07:55:35.594Z,52.27
2018-08-11T07:56:35.617Z,52.07
2018-08-11T07:57:35.577Z,52.26
2018-08-11T07:58:35.661Z,52.24
2018-08-11T07:59:35.583Z,52.21
2018-08-11T08:00:35.719Z,51.98
2018-08-11T08:01:35.573Z,51.91
2018-08-11T08:02:35.648Z,52.15
2018-08-11T08:03:35.606Z,52.29
2018-08-11T08:04:35.699Z,52.31
2018-08-11T08:05:35.607Z,52
2018-08-11T08:06:35.701Z,52.32
2018-08-11T08:07:35.653Z,51.71
2018-08-11T08:08:35.593Z,51.88
2018-08-11T08:09:35.608Z,51.92
2018-08-11T08:10:35.594Z,51.82
2018-08-11T08:11:35.631Z,52.37
2018-08-11T08:12:35.769Z,51.92
2018-08-11T08:13:35.564Z,51.85
2018-08-11T08:14:35.737Z,52.79
2018-08-11T08:15:35.585Z,51.79
2018-08-11T08:16:35.602Z,51.37
2018-08-11T08:17:35.589Z,51.52
2018-08-11T08:18:35.579Z,51.33
2018-08-11T08:19:35.585Z,51.34
2018-08-11T08:20:35.600Z,50.75
2018-08-11T08:21:35.546Z,51.23
2018-08-11T08:22:35.896Z,51
2018-08-11T08:23:35.972Z,51.24
2018-08-11T08:24:35.729Z,50.72
2018-08-11T08:25:35.748Z,51.24
2018-08-11T08:26:35.739Z,50.75
2018-08-11T08:27:35.585Z,51.07
2018-08-11T08:28:35.562Z,51.1
2018-08-11T08:29:35.598Z,49.87
2018-08-11T08:30:35.587Z,50.47
2018-08-11T08:31:35.639Z,50.36
2018-08-11T08:32:35.569Z,49.57
2018-08-11T08:33:35.599Z,50.07
2018-08-11T08:34:35.555Z,49.95
2018-08-11T08:35:35.589Z,49.93
2018-08-11T08:36:35.985Z,49.38
2018-08-11T08:37:35.594Z,49.12
2018-08-11T08:38:35.596Z,49.2
2018-08-11T08:39:35.581Z,48.91
2018-08-11T08:40:35.553Z,49.08
2018-08-11T08:41:35.575Z,49.27
2018-08-11T08:42:35.598Z,49.27
2018-08-11T08:43:35.558Z,49.32
2018-08-11T08:44:35.557Z,49.8
2018-08-11T08:45:35.578Z,49.84
2018-08-11T08:46:35.561Z,49.67
2018-08-11T08:47:35.691Z,49.56
2018-08-11T08:48:35.572Z,49.25
2018-08-11T08:49:35.545Z,49.57
2018-08-11T08:50:35.720Z,49.47
2018-08-11T08:51:35.532Z,48.47
2018-08-11T08:52:35.557Z,48.82
2018-08-11T08:53:35.547Z,48.87
2018-08-11T08:54:35.605Z,48.64
2018-08-11T08:55:35.781Z,49.04
2018-08-11T08:56:35.746Z,48.88
2018-08-11T08:57:35.840Z,48.85
2018-08-11T08:58:35.568Z,49
2018-08-11T08:59:35.669Z,49.15
2018-08-11T09:00:35.880Z,48.99
2018-08-11T09:01:35.640Z,49.42
2018-08-11T09:02:35.604Z,49.18
2018-08-11T09:03:35.564Z,48.85
2018-08-11T09:04:35.584Z,48.68
2018-08-11T09:05:35.610Z,48.94
2018-08-11T09:06:35.566Z,48.86
2018-08-11T09:07:35.601Z,49.06
2018-08-11T09:08:35.630Z,49.19
2018-08-11T09:09:35.584Z,49.07
2018-08-11T09:10:35.711Z,49.21
2018-08-11T09:11:35.561Z,48.7
2018-08-11T09:12:35.714Z,48.39
2018-08-11T09:13:35.553Z,48.23
2018-08-11T09:14:35.568Z,48.21
2018-08-11T09:15:35.789Z,48.17
2018-08-11T09:16:35.876Z,48.39
2018-08-11T09:17:35.630Z,48.42
2018-08-11T09:18:35.684Z,48.64
2018-08-11T09:19:35.830Z,48.01
2018-08-11T09:20:36.317Z,48.18
2018-08-11T09:21:35.806Z,48.24
2018-08-11T09:22:35.572Z,48.01
2018-08-11T09:23:35.924Z,47.6
2018-08-11T09:24:35.732Z,47.75
2018-08-11T09:25:35.578Z,47.36
2018-08-11T09:26:35.737Z,47.36
2018-08-11T09:27:35.848Z,47.68
2018-08-11T09:28:35.724Z,47.8
2018-08-11T09:29:36.791Z,47.65
2018-08-11T09:30:35.777Z,47.49
2018-08-11T09:31:37.540Z,47.65
2018-08-11T09:32:35.687Z,47.25
2018-08-11T09:33:35.784Z,47.88
2018-08-11T09:34:35.694Z,47.76
2018-08-11T09:35:18.344Z,47.96
2018-08-11T09:36:18.090Z,47.62
2018-08-11T09:37:17.996Z,47.73
2018-08-11T09:38:18.071Z,47.72
2018-08-11T09:39:18.219Z,47.88
2018-08-11T09:40:18.338Z,47.55
2018-08-11T09:41:19.165Z,46.96
2018-08-11T09:42:18.000Z,46.78
2018-08-11T09:43:18.144Z,46.98
2018-08-11T09:44:18.254Z,47.06
2018-08-11T09:45:17.971Z,47.08
2018-08-11T09:46:18.272Z,46.86
2018-08-11T09:47:18.031Z,46.21
2018-08-11T09:48:17.986Z,46.65
2018-08-11T09:49:18.182Z,46.85
2018-08-11T09:50:18.087Z,46.68
2018-08-11T09:51:17.987Z,46.39
2018-08-11T09:52:18.137Z,46.2
2018-08-11T09:53:18.121Z,46.26
2018-08-11T09:54:17.964Z,46.56
2018-08-11T09:55:18.149Z,45.87
2018-08-11T09:56:17.954Z,45.77
2018-08-11T09:57:17.978Z,45.92
2018-08-11T09:58:18.042Z,46.15
2018-08-11T09:59:17.972Z,45.87
2018-08-11T10:00:17.973Z,45.42
2018-08-11T10:01:18.170Z,45.13
2018-08-11T10:02:17.978Z,44.97
2018-08-11T10:03:17.959Z,44.98
2018-08-11T10:04:18.084Z,44.88
2018-08-11T10:05:17.958Z,45.18
2018-08-11T10:06:17.948Z,45.08
2018-08-11T10:07:18.129Z,45.7
2018-08-11T10:08:18.042Z,45.24
2018-08-11T10:09:18.018Z,45.59
2018-08-11T10:10:18.043Z,45.04
2018-08-11T10:11:17.952Z,45.55
2018-08-11T10:12:18.136Z,45.34
2018-08-11T10:13:18.462Z,45.41
2018-08-11T10:14:17.970Z,45.53
2018-08-11T10:15:18.050Z,45.89
2018-08-11T10:16:18.183Z,45.61
2018-08-11T10:17:17.983Z,45.95
2018-08-11T10:18:18.041Z,45.58
2018-08-11T10:19:18.051Z,45.58
2018-08-11T10:20:18.473Z,45.48
2018-08-11T10:21:17.990Z,45.65
2018-08-11T10:22:18.116Z,45
2018-08-11T10:23:17.961Z,45.68
2018-08-11T10:24:18.039Z,45.25
2018-08-11T10:25:18.146Z,45.35
2018-08-11T10:26:17.963Z,44.45
2018-08-11T10:27:17.944Z,43.61
2018-08-11T10:28:18.152Z,43.65
2018-08-11T10:29:17.951Z,43.53
2018-08-11T10:30:18.374Z,44.16
2018-08-11T10:31:18.275Z,44.21
2018-08-11T10:32:17.936Z,44.18
2018-08-11T10:33:18.170Z,44.25
2018-08-11T10:34:18.088Z,44.36
2018-08-11T10:35:18.060Z,44.83
2018-08-11T10:36:17.957Z,44.96
2018-08-11T10:37:19.134Z,45.05
2018-08-11T10:38:18.274Z,45.55
2018-08-11T10:39:17.940Z,45.52
2018-08-11T10:40:18.183Z,45.52
2018-08-11T10:41:18.033Z,45.25
2018-08-11T10:42:17.949Z,45.26
2018-08-11T10:43:18.053Z,45.3
2018-08-11T10:44:18.024Z,45.1
2018-08-11T10:45:18.222Z,45.43
2018-08-11T10:46:18.282Z,45.06
2018-08-11T10:47:17.946Z,45.29
2018-08-11T10:48:18.104Z,45.41
2018-08-11T10:49:18.096Z,45.18
2018-08-11T10:50:17.964Z,45.26
2018-08-11T10:51:18.209Z,44.98
2018-08-11T10:52:18.007Z,45.27
2018-08-11T10:53:17.955Z,45.24
2018-08-11T10:54:17.980Z,45.32
2018-08-11T10:55:18.335Z,44.72
2018-08-11T10:56:17.938Z,44.94
2018-08-11T10:57:17.958Z,44.51
2018-08-11T10:58:18.661Z,44.85
2018-08-11T10:59:17.933Z,44.6
2018-08-11T11:00:17.978Z,44.21
2018-08-11T11:01:18.222Z,44.17
2018-08-11T11:02:18.184Z,43.75
2018-08-11T11:03:17.971Z,43.89
2018-08-11T11:04:17.987Z,42.98
2018-08-11T11:05:17.945Z,43.62
2018-08-11T11:06:17.948Z,43.82
2018-08-11T11:07:18.118Z,42.82
2018-08-11T11:08:17.957Z,42.75
2018-08-11T11:09:17.935Z,42.79
2018-08-11T11:10:18.037Z,42.67
2018-08-11T11:11:17.949Z,42.9
2018-08-11T11:12:17.943Z,42.53
2018-08-11T11:13:18.164Z,42.12
2018-08-11T11:14:17.944Z,42.45
2018-08-11T11:15:18.076Z,42.46
2018-08-11T11:16:17.941Z,42.85
2018-08-11T11:17:17.982Z,42.83
2018-08-11T11:18:17.922Z,42.76
2018-08-11T11:19:18.108Z,42.89
2018-08-11T11:20:18.164Z,42.38
2018-08-11T11:21:17.948Z,42.81
2018-08-11T11:22:18.019Z,42.94
2018-08-11T11:23:17.952Z,43.31
2018-08-11T11:24:17.947Z,43.09
2018-08-11T11:25:18.038Z,43.49
2018-08-11T11:26:18.200Z,43.46
2018-08-11T11:27:17.989Z,43.48
2018-08-11T11:28:18.061Z,43.66
2018-08-11T11:29:18.198Z,43.37
2018-08-11T11:30:17.938Z,43.4
2018-08-11T11:31:19.108Z,43.57
2018-08-11T11:32:17.945Z,42.86
2018-08-11T11:33:17.933Z,42.26
2018-08-11T11:34:18.000Z,41.95
2018-08-11T11:35:17.917Z,41.69
2018-08-11T11:36:18.012Z,40.99
2018-08-11T11:37:18.209Z,40.88
2018-08-11T11:38:17.970Z,40.91
2018-08-11T11:39:18.033Z,41.22
2018-08-11T11:40:18.045Z,41.6
2018-08-11T11:41:17.946Z,41.25
2018-08-11T11:42:18.002Z,41.14
2018-08-11T11:43:18.141Z,41.11
2018-08-11T11:44:17.918Z,41.48
2018-08-11T11:45:18.024Z,41.51
2018-08-11T11:46:18.086Z,40.95
2018-08-11T11:47:17.934Z,41.6
2018-08-11T11:48:17.932Z,40.76
2018-08-11T11:49:18.105Z,40.03
2018-08-11T11:50:17.938Z,39.86
2018-08-11T11:51:17.952Z,39.4
2018-08-11T11:52:18.338Z,39.49
2018-08-11T11:53:17.952Z,40.11
2018-08-11T11:54:17.974Z,39.79
2018-08-11T11:55:18.044Z,38.83
2018-08-11T11:56:17.946Z,38.93
2018-08-11T11:57:17.916Z,38.73
2018-08-11T11:58:18.070Z,38.81
2018-08-11T11:59:18.135Z,38.29
2018-08-11T12:00:17.933Z,37.71
2018-08-11T12:01:18.096Z,36.99
2018-08-11T12:02:17.988Z,37.58
2018-08-11T12:03:17.918Z,37.28
2018-08-11T12:04:18.004Z,37.03
2018-08-11T12:05:18.028Z,36
2018-08-11T12:06:17.950Z,36.46
2018-08-11T12:07:18.137Z,36.81
2018-08-11T12:08:17.987Z,37.53
2018-08-11T12:09:17.947Z,37.52
2018-08-11T12:10:18.158Z,36.7
2018-08-11T12:11:17.920Z,36.29
2018-08-11T12:12:17.911Z,36.31
2018-08-11T12:13:18.076Z,37.04
2018-08-11T12:14:17.939Z,36.89
2018-08-11T12:15:17.910Z,37
2018-08-11T12:16:17.987Z,37.09
2018-08-11T12:17:18.123Z,37.32
2018-08-11T12:18:17.943Z,37.44
2018-08-11T12:19:18.120Z,37.42
2018-08-11T12:20:17.952Z,37.25
2018-08-11T12:21:17.944Z,37.76
2018-08-11T12:22:18.034Z,36.25
2018-08-11T12:23:17.935Z,36.64
2018-08-11T12:24:17.902Z,36.96
2018-08-11T12:25:17.968Z,37.05
2018-08-11T12:26:17.946Z,37.44
2018-08-11T12:27:17.919Z,37.1
2018-08-11T12:28:18.067Z,36.22
2018-08-11T12:29:17.936Z,35.45
2018-08-11T12:30:17.917Z,35.86
2018-08-11T12:31:18.128Z,35.86
2018-08-11T12:32:17.949Z,35.77
2018-08-11T12:33:17.916Z,36.04
2018-08-11T12:34:18.113Z,36.36
2018-08-11T12:35:17.937Z,36.11
2018-08-11T12:36:17.946Z,35.98
2018-08-11T12:37:18.028Z,35.78
2018-08-11T12:38:17.911Z,35.82
2018-08-11T12:39:17.902Z,35.86
2018-08-11T12:40:18.060Z,35.13
2018-08-11T12:41:17.917Z,35.26
2018-08-11T12:42:17.907Z,35.51
2018-08-11T12:43:18.076Z,35.62
2018-08-11T12:44:17.936Z,36.13
2018-08-11T12:45:17.940Z,35.84
2018-08-11T12:46:18.095Z,35.85
2018-08-11T12:47:17.963Z,36.25
2018-08-11T12:48:17.938Z,36.32
2018-08-11T12:49:18.122Z,36.89
2018-08-11T12:50:17.928Z,36.54
2018-08-11T12:51:17.955Z,36.19
2018-08-11T12:52:18.037Z,35.48
2018-08-11T12:53:18.164Z,35.64
2018-08-11T12:54:17.942Z,35.91
2018-08-11T12:55:17.978Z,36.05